createdAt,value
2019-02-09T00:00:35.757Z,7.00
2019-02-09T00:03:08.750Z,6.90
2019-02-09T00:05:40.739Z,7.00
2019-02-09T00:08:12.224Z,7.00
2019-02-09T00:10:43.631Z,7.00
2019-02-09T00:13:14.846Z,7.10
2019-02-09T00:15:46.348Z,7.10
2019-02-09T00:18:17.599Z,7.20
2019-02-09T00:20:48.809Z,7.20
2019-02-09T00:23:20.112Z,7.20
2019-02-09T00:25:51.349Z,7.20
2019-02-09T00:28:23.724Z,7.20
2019-02-09T00:30:56.034Z,7.20
2019-02-09T00:33:27.448Z,7.20
2019-02-09T00:35:58.678Z,7.20
2019-02-09T00:38:30.208Z,7.20
2019-02-09T00:41:01.415Z,7.20
2019-02-09T00:43:32.836Z,7.20
2019-02-09T00:46:04.148Z,7.20
2019-02-09T00:48:35.717Z,7.20
2019-02-09T00:51:06.944Z,7.20
2019-02-09T00:53:38.304Z,7.30
2019-02-09T00:56:09.553Z,7.20
2019-02-09T00:58:40.805Z,7.30
2019-02-09T01:01:12.049Z,7.30
2019-02-09T01:03:43.403Z,7.30
2019-02-09T01:06:14.770Z,7.20
2019-02-09T01:08:46.000Z,7.30
2019-02-09T01:11:17.241Z,7.30
2019-02-09T01:13:48.485Z,7.30
2019-02-09T01:16:19.780Z,7.30
2019-02-09T01:18:51.026Z,7.30
2019-02-09T01:21:22.578Z,7.20
2019-02-09T01:23:53.824Z,7.20
2019-02-09T01:26:25.119Z,7.30
2019-02-09T01:28:56.363Z,7.30
2019-02-09T01:31:27.732Z,7.30
2019-02-09T01:33:59.001Z,7.40
2019-02-09T01:36:30.361Z,7.40
2019-02-09T01:39:01.596Z,7.40
2019-02-09T01:41:34.344Z,7.40
2019-02-09T01:44:05.687Z,7.30
2019-02-09T01:46:37.036Z,7.30
2019-02-09T01:49:08.346Z,7.30
2019-02-09T01:51:39.732Z,7.20
2019-02-09T01:54:11.036Z,7.20
2019-02-09T01:56:42.374Z,7.20
2019-02-09T01:59:13.636Z,7.10
2019-02-09T03:01:41.097Z,6.60
2019-02-09T03:04:12.414Z,6.60
2019-02-09T03:06:43.643Z,6.60
2019-02-09T03:09:14.919Z,6.60
2019-02-09T03:11:46.215Z,6.60
2019-02-09T03:14:17.490Z,6.70
2019-02-09T03:16:48.766Z,6.80
2019-02-09T03:19:20.042Z,6.80
2019-02-09T03:21:51.844Z,6.90
2019-02-09T03:24:23.109Z,6.80
2019-02-09T03:26:54.378Z,6.90
2019-02-09T03:29:26.098Z,6.90
2019-02-09T03:31:57.359Z,6.90
2019-02-09T03:34:28.623Z,6.90
2019-02-09T03:36:59.883Z,6.90
2019-02-09T03:39:31.144Z,6.90
2019-02-09T03:42:02.402Z,7.00
2019-02-09T03:44:34.313Z,6.90
2019-02-09T03:47:05.677Z,6.90
2019-02-09T03:49:37.129Z,6.90
2019-02-09T03:52:08.398Z,6.90
2019-02-09T03:54:39.671Z,6.90
2019-02-09T03:57:10.946Z,6.90
2019-02-09T03:59:42.213Z,6.90
2019-02-09T04:02:13.566Z,6.90
2019-02-09T04:04:44.883Z,6.90
2019-02-09T04:07:16.108Z,6.90
2019-02-09T04:09:47.385Z,6.90
2019-02-09T04:12:18.650Z,6.90
2019-02-09T04:14:49.945Z,6.90
2019-02-09T04:17:21.382Z,6.90
2019-02-09T04:19:52.782Z,6.90
2019-02-09T04:22:24.039Z,6.90
2019-02-09T04:24:56.387Z,6.90
2019-02-09T04:27:27.657Z,6.90
2019-02-09T04:29:58.927Z,6.90
2019-02-09T04:32:30.195Z,6.90
2019-02-09T04:35:01.453Z,6.80
2019-02-09T04:37:33.254Z,6.80
2019-02-09T04:40:05.919Z,6.80
2019-02-09T04:42:37.206Z,6.80
2019-02-09T04:45:09.779Z,6.80
2019-02-09T04:47:42.081Z,6.80
2019-02-09T04:50:13.778Z,6.80
2019-02-09T04:52:49.033Z,6.90
2019-02-09T04:55:25.935Z,6.80
2019-02-09T04:57:57.569Z,6.90
2019-02-09T05:00:30.457Z,6.90
2019-02-09T05:03:05.133Z,6.90
2019-02-09T05:05:36.665Z,7.00
2019-02-09T05:08:07.926Z,6.90
2019-02-09T05:10:39.843Z,6.90
2019-02-09T05:13:11.377Z,6.90
2019-02-09T05:15:42.829Z,7.00
2019-02-09T05:18:14.133Z,7.00
2019-02-09T05:20:45.424Z,7.00
2019-02-09T05:23:16.777Z,6.90
2019-02-09T05:25:48.037Z,6.90
2019-02-09T05:28:19.296Z,6.90
2019-02-09T05:30:51.637Z,7.00
2019-02-09T05:33:23.341Z,7.00
2019-02-09T05:35:54.624Z,7.00
2019-02-09T05:38:25.888Z,7.00
2019-02-09T05:40:57.193Z,7.00
2019-02-09T05:43:28.490Z,7.00
2019-02-09T05:46:00.728Z,7.10
2019-02-09T05:48:32.101Z,7.10
2019-02-09T05:51:04.276Z,7.10
2019-02-09T05:53:36.426Z,7.20
2019-02-09T05:56:07.799Z,7.20
2019-02-09T05:58:39.113Z,7.20
2019-02-09T06:01:10.389Z,7.20
2019-02-09T06:03:41.661Z,7.20
2019-02-09T06:06:13.234Z,7.20
2019-02-09T06:08:45.558Z,7.20
2019-02-09T06:11:16.867Z,7.20
2019-02-09T06:13:48.453Z,7.20
2019-02-09T06:16:19.904Z,7.10
2019-02-09T06:18:52.393Z,7.20
2019-02-09T06:21:23.694Z,7.20
2019-02-09T06:23:54.998Z,7.20
2019-02-09T06:26:27.526Z,7.20
2019-02-09T06:28:58.851Z,7.10
2019-02-09T06:31:30.084Z,7.20
2019-02-09T06:34:01.522Z,7.20
2019-02-09T06:36:32.753Z,7.20
2019-02-09T06:39:05.311Z,7.20
2019-02-09T06:41:36.621Z,7.20
2019-02-09T06:44:07.840Z,7.20
2019-02-09T06:46:39.346Z,7.20
2019-02-09T06:49:10.582Z,7.20
2019-02-09T06:51:41.852Z,7.20
2019-02-09T06:54:13.289Z,7.10
2019-02-09T06:56:44.629Z,7.10
2019-02-09T06:59:16.085Z,7.10
2019-02-09T07:01:48.724Z,7.10
2019-02-09T07:04:20.249Z,7.00
2019-02-09T07:06:51.546Z,7.00
2019-02-09T07:09:23.009Z,7.00
2019-02-09T07:11:54.272Z,7.00
2019-02-09T07:14:25.564Z,7.00
2019-02-09T07:16:56.828Z,7.00
2019-02-09T07:19:28.109Z,7.00
2019-02-09T07:21:59.553Z,7.00
2019-02-09T07:24:32.870Z,7.00
2019-02-09T07:27:04.470Z,7.10
2019-02-09T07:29:37.440Z,7.10
2019-02-09T07:32:08.758Z,7.10
2019-02-09T07:34:40.069Z,7.10
2019-02-09T07:37:11.406Z,7.20
2019-02-09T07:39:42.682Z,7.20
2019-02-09T07:42:13.967Z,7.20
2019-02-09T07:44:45.352Z,7.20
2019-02-09T07:47:16.607Z,7.30
2019-02-09T07:49:47.870Z,7.30
2019-02-09T07:52:19.110Z,7.30
2019-02-09T07:54:50.392Z,7.30
2019-02-09T07:57:22.685Z,7.40
2019-02-09T07:59:54.001Z,7.40
2019-02-09T08:02:25.322Z,7.50
2019-02-09T08:04:56.596Z,7.50
2019-02-09T08:07:28.426Z,7.60
2019-02-09T08:09:59.679Z,7.60
2019-02-09T08:12:30.939Z,7.60
2019-02-09T08:15:02.262Z,7.60
2019-02-09T08:17:33.586Z,7.70
2019-02-09T08:20:05.652Z,7.70
2019-02-09T08:22:37.415Z,7.70
2019-02-09T08:25:10.676Z,7.70
2019-02-09T08:27:42.095Z,7.70
2019-02-09T08:30:16.272Z,7.70
2019-02-09T08:32:47.568Z,7.70
2019-02-09T08:35:19.004Z,7.70
2019-02-09T08:37:50.741Z,7.70
2019-02-09T08:40:22.012Z,7.80
2019-02-09T08:42:53.285Z,7.90
2019-02-09T08:45:24.879Z,8.00
2019-02-09T08:47:56.545Z,8.00
2019-02-09T08:50:30.466Z,8.10
2019-02-09T08:53:01.708Z,8.10
2019-02-09T08:55:33.078Z,8.10
2019-02-09T08:58:04.438Z,8.20
2019-02-09T09:00:36.624Z,8.20
2019-02-09T09:03:07.999Z,8.20
2019-02-09T09:05:39.825Z,8.30
2019-02-09T09:08:11.166Z,8.30
2019-02-09T09:10:43.670Z,8.30
2019-02-09T09:13:15.125Z,8.30
2019-02-09T09:15:49.094Z,8.20
2019-02-09T09:18:20.543Z,8.20
2019-02-09T09:20:54.392Z,8.20
2019-02-09T09:23:25.830Z,8.20
2019-02-09T09:25:57.210Z,8.20
2019-02-09T09:28:28.482Z,8.10
2019-02-09T09:30:59.749Z,8.10
2019-02-09T09:33:31.027Z,8.10
2019-02-09T09:36:02.380Z,8.10
2019-02-09T09:38:33.679Z,8.10
2019-02-09T09:41:05.056Z,8.00
2019-02-09T09:43:36.321Z,8.10
2019-02-09T09:46:07.995Z,8.00
2019-02-09T09:48:39.341Z,8.00
2019-02-09T09:51:10.601Z,8.00
2019-02-09T09:53:44.917Z,8.00
2019-02-09T09:56:19.432Z,8.00
2019-02-09T09:58:51.272Z,8.00
2019-02-09T10:01:22.533Z,8.00
2019-02-09T10:03:53.793Z,8.00
2019-02-09T10:06:25.081Z,8.10
2019-02-09T10:08:56.426Z,8.10
2019-02-09T10:11:27.829Z,8.20
2019-02-09T10:13:59.431Z,8.30
2019-02-09T10:16:30.941Z,8.40
2019-02-09T10:19:02.371Z,8.40
2019-02-09T10:21:33.654Z,8.50
2019-02-09T10:24:05.174Z,8.60
2019-02-09T10:26:36.417Z,8.70
2019-02-09T10:29:07.713Z,8.80
2019-02-09T10:31:39.726Z,8.90
2019-02-09T10:34:11.006Z,9.00
2019-02-09T10:36:42.289Z,9.10
2019-02-09T10:39:13.549Z,9.20
2019-02-09T10:41:44.841Z,9.20
2019-02-09T10:44:16.431Z,9.30
2019-02-09T10:46:48.646Z,9.30
2019-02-09T10:49:19.976Z,9.40
2019-02-09T10:51:51.364Z,9.50
2019-02-09T10:54:22.627Z,9.50
2019-02-09T10:56:53.889Z,9.60
2019-02-09T10:59:25.148Z,9.60
2019-02-09T11:01:56.412Z,9.70
2019-02-09T11:04:27.697Z,9.80
2019-02-09T11:06:58.965Z,9.70
2019-02-09T11:09:30.213Z,9.70
2019-02-09T11:12:01.465Z,9.70
2019-02-09T11:14:32.768Z,9.70
2019-02-09T11:17:04.059Z,9.80
2019-02-09T11:19:35.324Z,9.80
2019-02-09T11:22:06.895Z,9.70
2019-02-09T11:24:38.162Z,9.70
2019-02-09T11:27:09.642Z,9.70
2019-02-09T11:29:40.922Z,9.80
2019-02-09T11:32:12.808Z,9.60
2019-02-09T11:34:44.097Z,9.60
2019-02-09T11:37:15.345Z,9.60
2019-02-09T11:39:46.675Z,9.40
2019-02-09T11:42:18.973Z,9.40
2019-02-09T11:44:50.621Z,9.40
2019-02-09T11:47:21.876Z,9.30
2019-02-09T11:49:53.125Z,9.40
2019-02-09T11:52:25.048Z,9.40
2019-02-09T11:54:56.525Z,9.40
2019-02-09T11:57:28.298Z,9.40
2019-02-09T11:59:59.666Z,9.40
2019-02-09T12:02:31.165Z,9.50
2019-02-09T12:05:02.590Z,9.50
2019-02-09T12:07:34.041Z,9.40
2019-02-09T12:10:06.729Z,9.50
2019-02-09T12:12:39.202Z,9.60
2019-02-09T12:15:14.160Z,9.60
2019-02-09T12:17:46.934Z,9.60
2019-02-09T12:20:18.725Z,9.80
2019-02-09T12:22:49.995Z,9.80
2019-02-09T12:25:23.460Z,9.80
2019-02-09T12:27:54.742Z,9.80
2019-02-09T12:30:27.825Z,9.80
2019-02-09T12:33:00.130Z,9.90
2019-02-09T12:35:31.574Z,9.90
2019-02-09T12:38:02.777Z,9.90
2019-02-09T12:40:34.440Z,9.90
2019-02-09T12:43:06.020Z,9.90
2019-02-09T12:45:37.691Z,9.90
2019-02-09T12:48:09.196Z,9.80
2019-02-09T12:50:40.772Z,9.80
2019-02-09T12:53:11.993Z,9.90
2019-02-09T12:55:43.242Z,9.90
2019-02-09T12:58:14.938Z,9.90
2019-02-09T13:00:46.839Z,9.90
2019-02-09T13:03:20.994Z,9.80
2019-02-09T13:05:52.257Z,9.80
2019-02-09T13:08:23.526Z,9.80
2019-02-09T13:10:54.791Z,9.80
2019-02-09T13:13:26.035Z,9.80
2019-02-09T13:15:57.325Z,9.70
2019-02-09T13:18:28.669Z,9.70
2019-02-09T13:20:59.927Z,9.80
2019-02-09T13:23:31.189Z,9.80
2019-02-09T13:26:02.486Z,9.80
2019-02-09T13:28:33.752Z,9.90
2019-02-09T13:31:05.376Z,10.00
2019-02-09T13:33:39.035Z,10.00
2019-02-09T13:36:09.923Z,9.90
2019-02-09T13:38:41.351Z,10.00
2019-02-09T13:41:12.633Z,9.90
2019-02-09T13:43:43.878Z,10.00
2019-02-09T13:46:15.203Z,10.00
2019-02-09T13:48:46.622Z,10.10
2019-02-09T13:51:17.954Z,10.20
2019-02-09T13:53:49.259Z,10.20
2019-02-09T13:56:21.387Z,10.20
2019-02-09T13:58:52.707Z,10.20
2019-02-09T14:01:24.384Z,10.10
2019-02-09T14:03:55.703Z,10.10
2019-02-09T14:06:27.049Z,10.20
2019-02-09T14:08:58.347Z,10.20
2019-02-09T14:11:29.604Z,10.20
2019-02-09T14:14:00.880Z,10.20
2019-02-09T14:16:38.594Z,10.20
2019-02-09T14:19:05.154Z,10.30
2019-02-09T14:21:36.520Z,10.30
2019-02-09T14:24:07.859Z,10.10
2019-02-09T14:26:39.200Z,10.10
2019-02-09T14:29:10.558Z,10.20
2019-02-09T14:31:43.482Z,10.20
2019-02-09T14:34:14.715Z,10.20
2019-02-09T14:36:45.980Z,10.20
2019-02-09T14:39:18.249Z,10.20
2019-02-09T14:41:49.617Z,10.20
2019-02-09T14:44:21.314Z,10.20
2019-02-09T14:46:52.640Z,10.10
2019-02-09T14:49:23.904Z,10.10
2019-02-09T14:51:55.178Z,10.10
2019-02-09T14:54:26.421Z,10.00
2019-02-09T14:56:57.714Z,10.00
2019-02-09T14:59:28.984Z,10.00
2019-02-09T15:02:02.347Z,10.00
2019-02-09T15:04:33.632Z,10.00
2019-02-09T15:07:05.206Z,9.90
2019-02-09T15:09:36.482Z,9.90
2019-02-09T15:12:08.060Z,9.80
2019-02-09T15:14:39.393Z,9.90
2019-02-09T15:17:10.635Z,9.80
2019-02-09T15:19:42.404Z,9.70
2019-02-09T15:22:13.759Z,9.70
2019-02-09T15:24:45.056Z,9.70
2019-02-09T15:27:16.416Z,9.70
2019-02-09T15:29:47.686Z,9.60
2019-02-09T15:32:19.366Z,9.60
2019-02-09T15:34:50.635Z,9.50
2019-02-09T15:37:21.983Z,9.40
2019-02-09T15:39:54.252Z,9.20
2019-02-09T15:42:25.710Z,9.20
2019-02-09T15:44:57.788Z,9.20
2019-02-09T15:47:29.104Z,9.10
2019-02-09T15:50:00.651Z,9.00
2019-02-09T15:52:31.967Z,9.00
2019-02-09T15:55:04.278Z,9.00
2019-02-09T15:57:35.532Z,8.90
2019-02-09T16:00:10.321Z,8.90
2019-02-09T16:02:42.508Z,8.90
2019-02-09T16:05:13.878Z,8.90
2019-02-09T16:07:45.253Z,8.80
2019-02-09T16:10:17.705Z,8.80
2019-02-09T16:12:49.057Z,8.80
2019-02-09T16:15:22.660Z,8.80
2019-02-09T16:17:54.120Z,8.80
2019-02-09T16:20:25.726Z,8.80
2019-02-09T16:22:57.227Z,8.80
2019-02-09T16:25:28.586Z,8.70
2019-02-09T16:28:01.826Z,8.80
2019-02-09T16:30:33.588Z,8.70
2019-02-09T16:33:05.766Z,8.70
2019-02-09T16:35:39.426Z,8.70
2019-02-09T16:38:10.867Z,8.70
2019-02-09T16:40:43.222Z,8.70
2019-02-09T16:43:14.917Z,8.70
2019-02-09T16:45:46.276Z,8.70
2019-02-09T16:48:17.543Z,8.70
2019-02-09T16:50:49.270Z,8.60
2019-02-09T16:53:24.217Z,8.60
2019-02-09T16:55:55.957Z,8.50
2019-02-09T16:58:27.902Z,8.50
2019-02-09T17:00:59.916Z,8.50
2019-02-09T17:03:31.379Z,8.40
2019-02-09T17:06:02.791Z,8.40
2019-02-09T17:08:34.065Z,8.40
2019-02-09T17:11:05.529Z,8.40
2019-02-09T17:13:37.199Z,8.40
2019-02-09T17:16:08.466Z,8.30
2019-02-09T17:18:39.729Z,8.30
2019-02-09T17:21:11.014Z,8.30
2019-02-09T17:23:42.331Z,8.20
2019-02-09T17:26:15.088Z,8.20
2019-02-09T17:28:46.589Z,8.20
2019-02-09T17:31:18.546Z,8.10
2019-02-09T17:33:49.866Z,8.10
2019-02-09T17:36:21.146Z,8.10
2019-02-09T17:38:52.601Z,8.10
2019-02-09T17:41:23.901Z,8.10
2019-02-09T17:43:55.217Z,8.10
2019-02-09T17:46:26.794Z,8.10
2019-02-09T17:48:59.175Z,8.00
2019-02-09T17:51:31.050Z,8.00
2019-02-09T17:54:02.582Z,8.00
2019-02-09T17:56:37.551Z,8.00
2019-02-09T17:59:13.849Z,8.00
2019-02-09T18:01:45.358Z,8.00
2019-02-09T18:04:19.733Z,8.10
2019-02-09T18:06:52.059Z,8.00
2019-02-09T18:09:24.367Z,8.00
2019-02-09T18:11:56.605Z,8.00
2019-02-09T18:14:28.320Z,7.90
2019-02-09T18:16:59.695Z,7.90
2019-02-09T18:19:32.155Z,7.90
2019-02-09T18:22:04.073Z,7.90
2019-02-09T18:24:35.429Z,7.80
2019-02-09T18:27:06.698Z,7.80
2019-02-09T18:29:38.414Z,7.80
2019-02-09T18:32:09.705Z,7.80
2019-02-09T18:34:40.996Z,7.80
2019-02-09T18:37:12.468Z,7.80
2019-02-09T18:39:43.700Z,7.80
2019-02-09T18:42:15.056Z,7.80
2019-02-09T18:44:46.328Z,7.80
2019-02-09T18:47:20.677Z,7.80
2019-02-09T18:49:54.711Z,7.80
2019-02-09T18:52:25.965Z,7.80
2019-02-09T18:54:57.318Z,7.80
2019-02-09T18:57:29.795Z,7.90
2019-02-09T19:00:01.585Z,7.90
2019-02-09T19:02:38.552Z,7.80
2019-02-09T19:05:07.754Z,7.80
2019-02-09T19:07:40.563Z,7.80
2019-02-09T19:10:15.400Z,7.80
2019-02-09T19:12:49.865Z,7.80
2019-02-09T19:15:22.184Z,7.70
2019-02-09T19:17:54.034Z,7.70
2019-02-09T19:20:33.847Z,7.60
2019-02-09T19:23:05.490Z,7.60
2019-02-09T19:25:37.230Z,7.60
2019-02-09T19:28:09.720Z,7.60
2019-02-09T19:30:42.083Z,7.60
2019-02-09T19:33:13.499Z,7.60
2019-02-09T19:35:45.126Z,7.60
2019-02-09T19:38:16.384Z,7.60
2019-02-09T19:40:47.852Z,7.60
2019-02-09T19:43:19.117Z,7.60
2019-02-09T19:45:50.752Z,7.60
2019-02-09T19:48:22.060Z,7.60
2019-02-09T19:50:53.766Z,7.60
2019-02-09T19:53:25.250Z,7.60
2019-02-09T19:55:56.696Z,7.60
2019-02-09T19:58:30.375Z,7.50
2019-02-09T20:01:01.674Z,7.50
2019-02-09T20:03:32.968Z,7.50
2019-02-09T20:06:04.373Z,7.50
2019-02-09T20:08:35.875Z,7.50
2019-02-09T20:11:07.165Z,7.50
2019-02-09T20:13:38.865Z,7.50
2019-02-09T20:16:10.520Z,7.50
2019-02-09T20:18:41.855Z,7.50
2019-02-09T20:21:13.134Z,7.40
2019-02-09T20:23:45.581Z,7.40
2019-02-09T20:26:16.838Z,7.40
2019-02-09T20:28:48.150Z,7.50
2019-02-09T20:31:20.282Z,7.50
2019-02-09T20:33:52.554Z,7.50
2019-02-09T20:36:24.254Z,7.50
2019-02-09T20:38:55.696Z,7.40
2019-02-09T20:41:29.705Z,7.40
2019-02-09T20:44:00.970Z,7.40
2019-02-09T20:46:32.408Z,7.40
2019-02-09T20:49:03.841Z,7.40
2019-02-09T20:51:35.105Z,7.30
2019-02-09T20:54:06.510Z,7.30
2019-02-09T20:56:37.789Z,7.20
2019-02-09T20:59:09.130Z,7.20
2019-02-09T21:01:40.395Z,7.20
2019-02-09T21:04:11.834Z,7.20
2019-02-09T21:06:43.162Z,7.10
2019-02-09T21:09:14.406Z,7.10
2019-02-09T21:11:46.722Z,7.00
2019-02-09T21:14:17.975Z,7.00
2019-02-09T21:16:51.793Z,7.00
2019-02-09T21:19:23.571Z,7.00
2019-02-09T21:21:54.873Z,6.90
2019-02-09T21:24:26.185Z,6.90
2019-02-09T21:26:57.518Z,6.90
2019-02-09T21:29:29.600Z,6.90
2019-02-09T21:32:01.902Z,6.80
2019-02-09T21:34:33.181Z,6.80
2019-02-09T21:37:04.631Z,6.80
2019-02-09T21:39:36.078Z,6.70
2019-02-09T21:42:07.609Z,6.70
2019-02-09T21:44:40.021Z,6.70
2019-02-09T21:47:14.009Z,6.60
2019-02-09T21:49:47.444Z,6.60
2019-02-09T21:52:22.475Z,6.50
2019-02-09T21:54:54.463Z,6.60
2019-02-09T21:57:25.920Z,6.50
2019-02-09T21:59:57.205Z,6.40
2019-02-09T22:02:28.488Z,6.40
2019-02-09T22:05:00.305Z,6.30
2019-02-09T22:07:33.482Z,6.30
2019-02-09T22:10:05.695Z,6.30
2019-02-09T22:12:37.027Z,6.20
2019-02-09T22:15:09.401Z,6.20
2019-02-09T22:17:40.922Z,6.20
2019-02-09T22:20:13.853Z,6.20
2019-02-09T22:22:46.990Z,6.20
2019-02-09T22:25:20.414Z,6.20
2019-02-09T22:27:52.198Z,6.30
2019-02-09T22:30:25.724Z,6.30
2019-02-09T22:32:57.364Z,6.30
2019-02-09T22:35:29.272Z,6.30
2019-02-09T22:38:00.944Z,6.30
2019-02-09T22:40:34.633Z,6.30
2019-02-09T22:43:06.636Z,6.30
2019-02-09T22:45:39.381Z,6.30
2019-02-09T22:48:11.036Z,6.30
2019-02-09T22:50:44.409Z,6.30
2019-02-09T22:53:16.699Z,6.30
2019-02-09T22:55:47.970Z,6.30
2019-02-09T22:58:19.351Z,6.30
2019-02-09T23:01:27.346Z,6.30
2019-02-09T23:04:23.374Z,6.30
2019-02-09T23:07:08.085Z,6.30
2019-02-09T23:09:39.457Z,6.30
2019-02-09T23:12:12.734Z,6.30
2019-02-09T23:14:44.947Z,6.30
2019-02-09T23:17:16.381Z,6.30
2019-02-09T23:19:48.090Z,6.30
2019-02-09T23:22:19.372Z,6.30
2019-02-09T23:24:51.018Z,6.30
2019-02-09T23:27:22.845Z,6.30
2019-02-09T23:29:54.092Z,6.40
2019-02-09T23:32:25.382Z,6.40
2019-02-09T23:35:00.792Z,6.40
2019-02-09T23:37:32.040Z,6.40
2019-02-09T23:40:03.382Z,6.40
2019-02-09T23:42:34.657Z,6.40
2019-02-09T23:45:06.135Z,6.40
2019-02-09T23:47:37.417Z,6.30
2019-02-09T23:50:09.218Z,6.30
2019-02-09T23:52:41.078Z,6.30
2019-02-09T23:55:12.326Z,6.20
2019-02-09T23:57:43.576Z,6.20
